Time;durP1;ratioP1;P1;durP2;ratioP2;P2;SDS_P1;SDS_P2;PMS_P1;PMS_P2;Temp;Humidity;BMP_temperature;BMP_pressure;BME280_temperature;BME280_humidity;BME280_pressure;Samples;Min_cycle;Max_cycle;Signal;HPM_P1;HPM_P2
2023/04/04 00:01:24;;;;;;;6.28;3.30;;;3.50;99.90;;;;;;5038371;28;20041;-80
2023/04/04 00:03:50;;;;;;;7.50;2.45;;;3.40;99.90;;;;;;5038540;28;20063;-80
2023/04/04 00:06:19;;;;;;;5.35;2.50;;;3.40;99.90;;;;;;5038278;28;20094;-80
2023/04/04 00:08:46;;;;;;;7.20;2.40;;;3.40;99.90;;;;;;5038039;28;20044;-80
2023/04/04 00:11:12;;;;;;;6.60;2.40;;;3.40;99.90;;;;;;5038268;28;20068;-80
2023/04/04 00:13:38;;;;;;;7.97;2.45;;;3.40;99.90;;;;;;5038570;28;20107;-80
2023/04/04 00:16:05;;;;;;;5.93;2.30;;;3.40;99.90;;;;;;5038027;28;20381;-81
2023/04/04 00:18:31;;;;;;;7.25;2.78;;;3.30;99.90;;;;;;5038323;28;20037;-81
2023/04/04 00:20:57;;;;;;;6.50;2.47;;;3.40;99.90;;;;;;5037305;28;20060;-81
2023/04/04 00:23:23;;;;;;;5.95;2.65;;;3.30;99.90;;;;;;5055908;28;20037;-81
2023/04/04 00:25:51;;;;;;;8.85;3.08;;;3.30;99.90;;;;;;5055841;28;20118;-81
2023/04/04 00:28:18;;;;;;;6.75;2.60;;;3.30;99.90;;;;;;5055513;28;20091;-81
2023/04/04 00:30:44;;;;;;;7.38;2.78;;;3.20;99.90;;;;;;5055564;28;20049;-81
2023/04/04 00:33:10;;;;;;;8.40;2.67;;;3.20;99.90;;;;;;5037739;28;20048;-81
2023/04/04 00:35:35;;;;;;;6.40;2.58;;;3.20;99.90;;;;;;5055665;28;20053;-81
2023/04/04 00:38:01;;;;;;;9.38;2.80;;;3.20;99.90;;;;;;5037539;28;20041;-82
2023/04/04 00:40:28;;;;;;;8.80;2.40;;;3.10;99.90;;;;;;5055529;28;20044;-81
2023/04/04 00:42:54;;;;;;;8.35;2.70;;;3.10;99.90;;;;;;5037507;28;20093;-81
2023/04/04 00:45:22;;;;;;;6.00;2.30;;;3.00;99.90;;;;;;5037757;28;20056;-81
2023/04/04 00:47:50;;;;;;;6.80;3.13;;;3.00;99.90;;;;;;5037434;28;20045;-81
2023/04/04 00:50:16;;;;;;;5.82;2.78;;;3.00;99.90;;;;;;5055200;28;20063;-81
2023/04/04 00:52:42;;;;;;;6.45;2.97;;;3.00;99.90;;;;;;5037671;28;20496;-81
2023/04/04 00:55:08;;;;;;;8.52;3.88;;;3.00;99.90;;;;;;5037516;28;20131;-81
2023/04/04 00:57:34;;;;;;;8.95;3.28;;;2.90;99.90;;;;;;5037218;28;20080;-81
2023/04/04 01:00:04;;;;;;;7.75;3.20;;;2.90;99.90;;;;;;5037561;28;20091;-81
2023/04/04 01:02:30;;;;;;;7.65;3.15;;;2.90;99.90;;;;;;5037441;28;20057;-80
2023/04/04 01:04:56;;;;;;;8.55;3.33;;;2.90;99.90;;;;;;5037368;28;20060;-81
2023/04/04 01:07:22;;;;;;;6.05;3.20;;;2.90;99.90;;;;;;5037020;28;20045;-81
2023/04/04 01:09:48;;;;;;;6.22;2.95;;;2.90;99.90;;;;;;5054827;28;20558;-81
2023/04/04 01:12:14;;;;;;;8.98;3.45;;;2.90;99.90;;;;;;5054977;28;20072;-81
2023/04/04 01:14:40;;;;;;;8.30;3.53;;;2.90;99.90;;;;;;5036955;28;20400;-81
2023/04/04 01:17:06;;;;;;;7.95;3.72;;;2.90;99.90;;;;;;5036917;28;20049;-81
2023/04/04 01:19:37;;;;;;;8.13;3.72;;;2.90;99.90;;;;;;5037226;28;20048;-81
2023/04/04 01:22:04;;;;;;;11.95;4.22;;;2.90;99.90;;;;;;5037150;28;20044;-80
2023/04/04 01:24:33;;;;;;;7.35;4.20;;;2.80;99.90;;;;;;5054690;28;20037;-81
2023/04/04 01:26:59;;;;;;;11.23;3.72;;;2.80;99.90;;;;;;5054420;28;20037;-81
2023/04/04 01:29:26;;;;;;;8.35;3.53;;;2.80;99.90;;;;;;5054492;28;20041;-81
2023/04/04 01:32:12;;;;;;;9.57;4.10;;;2.70;99.90;;;;;;5054335;28;20045;-81
2023/04/04 01:34:52;;;;;;;8.48;4.13;;;2.70;99.90;;;;;;5036796;28;20111;-80
2023/04/04 01:37:33;;;;;;;10.40;4.25;;;2.70;99.90;;;;;;5036452;28;20399;-81
2023/04/04 01:40:16;;;;;;;7.03;4.10;;;2.60;99.90;;;;;;5054268;28;20088;-81
2023/04/04 01:42:44;;;;;;;;;;;2.50;99.90;;;;;;5036921;28;20386;-81
2023/04/04 01:45:11;;;;;;;8.25;3.85;;;2.50;99.90;;;;;;5036459;28;19924;-81
2023/04/04 01:47:40;;;;;;;10.88;3.95;;;2.50;99.90;;;;;;5053983;28;20543;-81
2023/04/04 01:50:08;;;;;;;11.13;5.18;;;2.50;99.90;;;;;;5054099;28;20068;-81
2023/04/04 01:52:34;;;;;;;9.57;5.38;;;2.40;99.90;;;;;;5036531;28;20447;-81
2023/04/04 01:55:03;;;;;;;12.48;4.95;;;2.40;99.90;;;;;;5036113;28;20140;-81
2023/04/04 01:57:29;;;;;;;11.98;5.18;;;2.40;99.90;;;;;;5036178;28;20041;-81
2023/04/04 01:59:55;;;;;;;10.27;5.18;;;2.40;99.90;;;;;;5036531;28;20128;-81
2023/04/04 02:02:21;;;;;;;11.85;4.75;;;2.30;99.90;;;;;;5036106;28;20040;-81
2023/04/04 02:04:47;;;;;;;10.45;4.18;;;2.30;99.90;;;;;;5036070;28;20128;-81
2023/04/04 02:07:13;;;;;;;11.48;5.15;;;2.30;99.90;;;;;;5035892;28;20037;-80
2023/04/04 02:09:39;;;;;;;10.55;5.00;;;2.30;99.90;;;;;;5036350;28;20041;-80
2023/04/04 02:12:05;;;;;;;11.02;5.40;;;2.30;99.90;;;;;;5035985;28;20067;-81
2023/04/04 02:14:31;;;;;;;10.48;4.93;;;2.20;99.90;;;;;;5053655;28;20087;-81
2023/04/04 02:16:57;;;;;;;10.13;5.35;;;2.20;99.90;;;;;;5053796;28;20085;-80
2023/04/04 02:19:23;;;;;;;10.85;4.90;;;2.20;99.90;;;;;;5035848;28;20060;-81
2023/04/04 02:21:49;;;;;;;9.27;4.80;;;2.10;99.90;;;;;;5053691;28;20049;-81
2023/04/04 02:24:14;;;;;;;8.63;5.13;;;2.10;99.90;;;;;;5036099;28;20045;-81
2023/04/04 02:26:40;;;;;;;9.77;4.25;;;2.10;99.90;;;;;;5035753;28;20048;-81
2023/04/04 02:29:06;;;;;;;9.52;5.05;;;2.00;99.90;;;;;;5053465;28;20128;-81
2023/04/04 02:31:32;;;;;;;8.35;4.80;;;2.00;99.90;;;;;;5035746;28;20048;-81
2023/04/04 02:33:58;;;;;;;9.73;4.70;;;2.00;99.90;;;;;;5035875;28;20045;-81
2023/04/04 02:36:24;;;;;;;8.50;4.78;;;1.90;99.90;;;;;;5035715;28;20040;-81
2023/04/04 02:38:49;;;;;;;7.45;4.78;;;1.90;99.90;;;;;;5053212;28;20052;-81
2023/04/04 02:41:15;;;;;;;8.98;4.85;;;1.90;99.90;;;;;;5053468;28;20041;-81
2023/04/04 02:43:41;;;;;;;11.73;5.35;;;1.80;99.90;;;;;;5034962;28;20048;-81
2023/04/04 02:46:06;;;;;;;10.35;4.15;;;1.80;99.90;;;;;;5053475;28;20045;-81
2023/04/04 02:48:32;;;;;;;9.32;5.20;;;1.80;99.90;;;;;;5035582;28;20543;-81
2023/04/04 02:50:58;;;;;;;10.18;4.90;;;1.70;99.90;;;;;;5035894;28;20045;-81
2023/04/04 02:53:24;;;;;;;9.15;4.60;;;1.70;99.90;;;;;;5035631;28;20098;-81
2023/04/04 02:55:49;;;;;;;6.50;4.35;;;1.60;99.90;;;;;;5053382;28;20041;-81
2023/04/04 02:58:15;;;;;;;10.48;4.53;;;1.70;99.90;;;;;;5035455;28;20167;-81
2023/04/04 03:00:40;;;;;;;11.13;5.53;;;1.60;99.90;;;;;;5035470;28;20124;-81
2023/04/04 03:03:06;;;;;;;7.90;4.95;;;1.50;99.90;;;;;;5035682;28;20049;-81
2023/04/04 03:05:32;;;;;;;8.25;4.88;;;1.50;99.90;;;;;;5035469;28;20380;-81
2023/04/04 03:07:58;;;;;;;10.70;5.45;;;1.50;99.90;;;;;;5035316;28;20076;-81
2023/04/04 03:10:26;;;;;;;8.93;4.75;;;1.50;99.90;;;;;;5053190;28;20059;-81
2023/04/04 03:12:52;;;;;;;9.50;4.50;;;1.50;99.90;;;;;;5053053;28;20044;-81
2023/04/04 03:15:18;;;;;;;10.00;4.75;;;1.40;99.90;;;;;;5035226;28;20067;-81
2023/04/04 03:17:44;;;;;;;8.20;4.75;;;1.40;99.90;;;;;;5053074;28;20052;-81
2023/04/04 03:20:11;;;;;;;9.25;4.93;;;1.40;99.90;;;;;;5053107;28;20522;-82
2023/04/04 03:22:37;;;;;;;10.73;5.20;;;1.40;99.90;;;;;;5035239;28;20492;-81
2023/04/04 03:25:02;;;;;;;9.48;5.05;;;1.40;99.90;;;;;;5035265;28;20044;-81
2023/04/04 03:27:31;;;;;;;10.43;5.47;;;1.40;99.90;;;;;;5035176;28;20045;-81
2023/04/04 03:29:58;;;;;;;10.20;5.25;;;1.40;99.90;;;;;;5035354;28;20056;-81
2023/04/04 03:32:24;;;;;;;12.57;4.70;;;1.30;99.90;;;;;;5035332;28;20091;-81
2023/04/04 03:34:50;;;;;;;10.45;5.25;;;1.30;99.90;;;;;;5053036;28;20095;-81
2023/04/04 03:37:16;;;;;;;10.35;5.10;;;1.30;99.90;;;;;;5053006;28;20072;-81
2023/04/04 03:39:42;;;;;;;8.00;4.70;;;1.30;99.90;;;;;;5034808;28;20057;-81
2023/04/04 03:42:08;;;;;;;8.38;5.07;;;1.30;99.90;;;;;;5034935;28;20053;-81
2023/04/04 03:44:35;;;;;;;7.32;4.22;;;1.20;99.90;;;;;;5052800;28;20041;-81
2023/04/04 03:47:01;;;;;;;6.97;4.53;;;1.20;99.90;;;;;;5034954;28;20087;-81
2023/04/04 03:49:26;;;;;;;8.85;5.20;;;1.20;99.90;;;;;;5034983;28;20080;-81
2023/04/04 03:51:52;;;;;;;9.75;5.22;;;1.20;99.90;;;;;;5035059;28;20049;-82
2023/04/04 03:54:18;;;;;;;8.30;5.00;;;1.10;99.90;;;;;;5035219;28;20060;-81
2023/04/04 03:56:44;;;;;;;12.98;5.10;;;1.10;99.90;;;;;;5056008;28;20077;-81
2023/04/04 03:59:09;;;;;;;10.48;5.78;;;1.10;99.90;;;;;;5038663;28;20045;-82
2023/04/04 04:01:35;;;;;;;9.18;5.35;;;1.10;99.90;;;;;;5038340;28;20071;-81
2023/04/04 04:04:01;;;;;;;11.88;5.60;;;1.10;99.90;;;;;;5038559;28;20095;-81
2023/04/04 04:06:26;;;;;;;10.23;5.38;;;1.10;99.90;;;;;;5056064;28;20053;-81
2023/04/04 04:08:52;;;;;;;10.23;5.25;;;1.10;99.90;;;;;;5038009;28;20044;-82
2023/04/04 04:11:18;;;;;;;11.80;5.53;;;1.10;99.90;;;;;;5056016;28;20128;-82
2023/04/04 04:13:43;;;;;;;9.60;5.80;;;1.10;99.90;;;;;;5038043;28;20052;-82
2023/04/04 04:16:09;;;;;;;9.57;6.47;;;1.10;99.90;;;;;;5038196;28;20057;-81
2023/04/04 04:18:35;;;;;;;10.02;6.22;;;1.00;99.90;;;;;;5056048;28;20036;-81
2023/04/04 04:21:03;;;;;;;8.65;4.90;;;1.10;99.90;;;;;;5055639;28;20059;-81
2023/04/04 04:23:30;;;;;;;12.80;5.63;;;1.10;99.90;;;;;;5055745;28;20555;-81
2023/04/04 04:25:55;;;;;;;10.98;5.38;;;1.00;99.90;;;;;;5055921;28;20044;-81
2023/04/04 04:28:23;;;;;;;10.13;5.80;;;1.00;99.90;;;;;;5037744;28;20132;-81
2023/04/04 04:30:50;;;;;;;7.95;4.65;;;1.10;99.90;;;;;;5037767;28;20045;-81
2023/04/04 04:33:16;;;;;;;12.48;5.57;;;1.10;99.90;;;;;;5037991;28;20051;-81
2023/04/04 04:35:41;;;;;;;11.25;5.32;;;1.10;99.90;;;;;;5055659;28;20103;-81
2023/04/04 04:38:07;;;;;;;10.52;5.25;;;1.00;99.90;;;;;;5037554;28;20048;-82
2023/04/04 04:40:33;;;;;;;10.55;5.65;;;1.00;99.90;;;;;;5037578;28;20081;-81
2023/04/04 04:43:01;;;;;;;10.27;5.45;;;1.00;99.90;;;;;;5037541;28;20045;-81
2023/04/04 04:45:26;;;;;;;9.55;5.32;;;1.00;99.90;;;;;;5055412;28;20110;-81
2023/04/04 04:47:53;;;;;;;10.30;4.85;;;1.00;99.90;;;;;;5037635;28;20451;-81
2023/04/04 04:50:19;;;;;;;12.13;5.32;;;1.00;99.90;;;;;;5055358;28;20049;-81
2023/04/04 04:52:44;;;;;;;10.27;5.35;;;0.90;99.90;;;;;;5037460;28;20045;-81
2023/04/04 04:55:10;;;;;;;9.65;4.70;;;0.90;99.90;;;;;;5055333;28;20045;-81
2023/04/04 04:57:37;;;;;;;9.13;4.63;;;0.90;99.90;;;;;;5037147;28;20416;-81
2023/04/04 05:00:03;;;;;;;12.13;5.05;;;0.90;99.90;;;;;;5054907;28;20044;-81
2023/04/04 05:02:29;;;;;;;9.05;5.43;;;0.90;99.90;;;;;;5036636;28;20045;-81
2023/04/04 05:04:55;;;;;;;8.55;5.07;;;0.90;99.90;;;;;;5037002;28;20052;-81
2023/04/04 05:07:22;;;;;;;8.30;5.25;;;0.80;99.90;;;;;;5036465;28;20134;-81
2023/04/04 05:09:48;;;;;;;10.77;4.53;;;0.80;99.90;;;;;;5036700;28;20435;-81
2023/04/04 05:12:13;;;;;;;8.13;4.55;;;0.80;99.90;;;;;;5036597;28;20477;-81
2023/04/04 05:14:39;;;;;;;9.85;5.40;;;0.80;99.90;;;;;;5036595;28;20045;-81
2023/04/04 05:17:04;;;;;;;9.57;5.07;;;0.70;99.90;;;;;;5036795;28;20040;-81
2023/04/04 05:19:30;;;;;;;10.48;4.93;;;0.60;99.90;;;;;;5036655;28;20088;-81
2023/04/04 05:21:56;;;;;;;7.97;4.80;;;0.60;99.90;;;;;;5036988;28;20080;-81
2023/04/04 05:24:22;;;;;;;11.25;5.65;;;0.60;99.90;;;;;;5054711;28;20048;-81
2023/04/04 05:26:48;;;;;;;11.52;5.63;;;0.60;99.90;;;;;;5036674;28;20071;-81
2023/04/04 05:29:13;;;;;;;8.18;4.95;;;0.50;99.90;;;;;;5036480;28;20041;-81
2023/04/04 05:31:39;;;;;;;13.07;5.07;;;0.60;99.90;;;;;;5036584;28;20045;-81
2023/04/04 05:34:08;;;;;;;7.93;4.65;;;0.60;99.90;;;;;;5054441;28;20124;-81
2023/04/04 05:36:34;;;;;;;9.77;4.90;;;0.60;99.90;;;;;;5036693;28;20044;-81
2023/04/04 05:39:00;;;;;;;9.13;4.32;;;0.70;99.90;;;;;;5036197;28;20523;-81
2023/04/04 05:41:26;;;;;;;8.05;4.70;;;0.70;99.90;;;;;;5036249;28;20521;-81
2023/04/04 05:43:52;;;;;;;9.95;4.68;;;0.90;99.90;;;;;;5036517;28;20587;-81
2023/04/04 05:46:18;;;;;;;9.88;5.05;;;0.90;99.90;;;;;;5036647;28;20099;-81
2023/04/04 05:48:43;;;;;;;9.55;4.75;;;1.00;99.90;;;;;;5036043;28;20496;-81
2023/04/04 05:51:09;;;;;;;7.75;4.45;;;1.10;99.90;;;;;;5036368;28;20037;-81
2023/04/04 05:53:35;;;;;;;8.85;5.13;;;1.20;99.90;;;;;;5036131;28;20381;-81
2023/04/04 05:56:01;;;;;;;8.80;5.10;;;1.30;99.90;;;;;;5036223;28;20158;-82
2023/04/04 05:58:26;;;;;;;7.55;4.43;;;1.40;99.90;;;;;;5035987;28;20539;-82
2023/04/04 06:00:52;;;;;;;10.02;5.28;;;1.50;99.90;;;;;;5035715;28;20037;-82
2023/04/04 06:03:17;;;;;;;9.00;4.90;;;1.50;99.90;;;;;;5035881;28;20094;-82
2023/04/04 06:05:43;;;;;;;9.38;5.22;;;1.60;99.90;;;;;;5035931;28;20094;-82
2023/04/04 06:08:09;;;;;;;9.75;4.72;;;1.60;99.90;;;;;;5053538;28;20051;-82
2023/04/04 06:10:46;;;;;;;11.65;4.70;;;1.80;99.90;;;;;;5036134;28;20045;-82
2023/04/04 06:13:24;;;;;;;8.98;4.97;;;1.80;99.90;;;;;;5034879;28;20060;-82
2023/04/04 06:15:50;;;;;;;11.07;4.93;;;1.90;99.90;;;;;;5035715;28;20503;-82
2023/04/04 06:18:18;;;;;;;10.30;4.22;;;1.90;99.90;;;;;;5035141;28;20118;-81
2023/04/04 06:20:44;;;;;;;8.63;4.75;;;2.00;99.90;;;;;;5035703;28;20072;-81
2023/04/04 06:23:09;;;;;;;9.38;4.47;;;2.00;99.90;;;;;;5053621;28;20083;-83
2023/04/04 06:25:36;;;;;;;10.32;5.30;;;2.10;99.90;;;;;;5035698;28;20059;-82
2023/04/04 06:28:02;;;;;;;7.93;5.03;;;2.30;99.90;;;;;;5035657;28;20467;-83
2023/04/04 06:30:28;;;;;;;8.93;4.03;;;2.30;99.90;;;;;;5035553;28;20484;-83
2023/04/04 06:32:54;;;;;;;8.13;4.13;;;2.40;99.90;;;;;;5035585;28;20161;-83
2023/04/04 06:35:20;;;;;;;9.38;4.45;;;2.30;99.90;;;;;;5035515;28;20128;-83
2023/04/04 06:37:47;;;;;;;6.95;3.97;;;2.40;99.90;;;;;;5053319;28;20120;-83
2023/04/04 06:40:13;;;;;;;8.35;5.05;;;2.50;99.90;;;;;;5035309;28;20546;-84
2023/04/04 06:42:46;;;;;;;8.63;4.43;;;2.50;99.90;;;;;;5043626;28;20117;-83
2023/04/04 06:45:16;;;;;;;6.38;4.60;;;2.60;99.90;;;;;;5024652;28;20069;-83
2023/04/04 06:47:42;;;;;;;8.05;3.90;;;2.70;99.90;;;;;;5015442;28;20056;-83
2023/04/04 06:50:08;;;;;;;8.70;3.83;;;2.70;99.90;;;;;;5015479;28;20132;-88
2023/04/04 06:52:34;;;;;;;8.80;3.78;;;2.80;99.90;;;;;;5033160;28;20060;-87
2023/04/04 06:55:00;;;;;;;7.63;3.95;;;2.90;99.90;;;;;;5015595;28;20045;-89
2023/04/04 06:57:26;;;;;;;7.25;3.80;;;3.00;99.90;;;;;;5015518;28;20051;-85
2023/04/04 06:59:51;;;;;;;10.55;4.05;;;3.10;99.90;;;;;;5015497;28;20485;-89
2023/04/04 07:02:17;;;;;;;8.60;4.20;;;3.30;99.90;;;;;;5016092;28;20053;-85
2023/04/04 07:04:43;;;;;;;7.35;3.65;;;3.30;99.90;;;;;;5015547;28;20056;-85
2023/04/04 07:07:08;;;;;;;11.15;5.22;;;3.50;99.90;;;;;;5015226;28;20054;-85
2023/04/04 07:09:34;;;;;;;8.02;3.40;;;3.50;99.90;;;;;;5015581;28;20053;-84
2023/04/04 07:12:00;;;;;;;8.23;3.45;;;3.60;99.90;;;;;;5015578;28;20485;-84
2023/04/04 07:14:25;;;;;;;6.97;3.30;;;3.80;99.90;;;;;;5015179;28;20516;-84
2023/04/04 07:16:51;;;;;;;6.32;3.35;;;3.80;99.90;;;;;;5015545;28;20038;-86
2023/04/04 07:19:17;;;;;;;5.53;2.88;;;4.00;99.90;;;;;;5015638;28;20052;-82
2023/04/04 07:21:43;;;;;;;7.35;3.13;;;4.10;99.90;;;;;;5015455;28;20103;-82
2023/04/04 07:24:09;;;;;;;6.45;3.03;;;4.20;99.90;;;;;;5015110;28;20115;-84
2023/04/04 07:26:34;;;;;;;4.90;2.90;;;4.30;99.90;;;;;;5015534;28;20100;-88
2023/04/04 07:29:00;;;;;;;9.30;4.13;;;4.40;99.90;;;;;;5015966;28;20492;-90
2023/04/04 07:31:26;;;;;;;7.13;2.97;;;4.50;99.90;;;;;;5019121;28;20041;-86
2023/04/04 07:33:55;;;;;;;7.25;3.10;;;4.70;99.90;;;;;;5036064;28;20584;-88
2023/04/04 07:36:20;;;;;;;5.60;2.55;;;4.80;99.90;;;;;;5018992;28;20041;-88
2023/04/04 07:38:46;;;;;;;7.38;2.28;;;5.00;99.90;;;;;;5018532;28;20088;-88
2023/04/04 07:41:12;;;;;;;6.82;2.58;;;5.10;99.90;;;;;;5018893;28;20108;-88
2023/04/04 07:43:38;;;;;;;6.47;2.35;;;5.40;99.90;;;;;;5019112;28;20050;-88
2023/04/04 07:46:03;;;;;;;5.65;2.63;;;5.40;99.90;;;;;;5018606;28;20042;-88
2023/04/04 07:48:29;;;;;;;4.38;2.30;;;5.60;99.90;;;;;;5018277;28;20049;-87
2023/04/04 07:50:55;;;;;;;7.40;2.58;;;5.70;99.90;;;;;;5036459;28;20125;-87
2023/04/04 07:53:21;;;;;;;5.72;3.45;;;5.80;99.90;;;;;;5036274;28;20064;-87
2023/04/04 07:55:47;;;;;;;6.20;2.25;;;5.90;99.90;;;;;;5036364;28;20095;-83
2023/04/04 07:58:13;;;;;;;5.43;2.25;;;6.10;99.90;;;;;;5018348;28;20049;-84
2023/04/04 08:00:38;;;;;;;6.15;2.47;;;6.20;99.90;;;;;;5018291;28;20033;-84
2023/04/04 08:03:04;;;;;;;6.00;2.42;;;6.30;99.90;;;;;;5018262;28;20045;-83
2023/04/04 08:05:30;;;;;;;6.05;2.72;;;6.40;99.90;;;;;;5018123;28;20120;-83
2023/04/04 08:07:56;;;;;;;5.80;2.25;;;6.60;99.90;;;;;;5018187;28;20049;-83
2023/04/04 08:10:22;;;;;;;5.55;2.17;;;6.80;99.90;;;;;;5018016;28;20097;-82
2023/04/04 08:12:48;;;;;;;5.53;1.92;;;7.00;99.90;;;;;;5018078;28;20075;-81
2023/04/04 08:15:14;;;;;;;9.40;2.22;;;7.00;99.90;;;;;;5018544;28;20045;-82
2023/04/04 08:17:39;;;;;;;5.40;2.20;;;7.20;99.90;;;;;;5018104;28;20179;-83
2023/04/04 08:20:06;;;;;;;6.50;2.20;;;7.00;99.90;;;;;;5018137;28;20042;-84
2023/04/04 08:22:32;;;;;;;5.50;1.63;;;6.90;99.90;;;;;;5018191;28;20038;-83
2023/04/04 08:24:58;;;;;;;5.55;1.80;;;6.90;99.90;;;;;;5017973;28;20536;-83
2023/04/04 08:27:23;;;;;;;6.70;2.20;;;6.90;99.90;;;;;;5017885;28;20176;-83
2023/04/04 08:29:49;;;;;;;4.07;1.75;;;7.00;99.90;;;;;;5017858;28;20037;-83
2023/04/04 08:32:15;;;;;;;6.20;2.05;;;6.90;99.90;;;;;;5017900;28;20527;-83
2023/04/04 08:34:41;;;;;;;5.93;2.25;;;6.90;99.90;;;;;;5017858;28;20049;-83
2023/04/04 08:37:07;;;;;;;4.13;1.80;;;7.10;99.90;;;;;;5018054;28;20048;-83
2023/04/04 08:39:33;;;;;;;5.70;1.63;;;7.00;99.90;;;;;;5028140;28;20053;-83
2023/04/04 08:42:06;;;;;;;6.47;1.90;;;7.30;99.90;;;;;;5025640;28;20050;-83
2023/04/04 08:44:33;;;;;;;6.15;2.10;;;7.50;99.90;;;;;;5034415;28;20476;-84
2023/04/04 08:47:01;;;;;;;6.57;1.83;;;7.60;99.90;;;;;;5026513;28;20052;-83
2023/04/04 08:49:30;;;;;;;4.22;1.80;;;7.80;99.90;;;;;;5035508;28;20050;-83
2023/04/04 08:51:57;;;;;;;8.10;1.90;;;7.90;99.90;;;;;;5026214;28;20041;-83
2023/04/04 08:54:25;;;;;;;2.80;1.40;;;7.90;99.90;;;;;;5034283;28;20135;-83
2023/04/04 08:56:51;;;;;;;5.25;2.50;;;8.10;99.90;;;;;;5034220;28;20081;-83
2023/04/04 08:59:17;;;;;;;3.42;1.60;;;8.10;99.90;;;;;;5035291;28;20052;-83
2023/04/04 09:01:44;;;;;;;5.53;1.80;;;8.10;99.90;;;;;;5035053;28;20481;-83
2023/04/04 09:04:10;;;;;;;7.70;2.20;;;8.30;99.90;;;;;;5035081;28;20073;-83
2023/04/04 09:06:37;;;;;;;4.28;1.55;;;8.40;99.90;;;;;;5031115;28;20044;-83
2023/04/04 09:09:03;;;;;;;5.13;2.00;;;8.60;99.90;;;;;;5026385;28;20037;-83
2023/04/04 09:11:31;;;;;;;3.67;1.50;;;8.70;99.90;;;;;;5033631;28;20106;-83
2023/04/04 09:13:57;;;;;;;3.72;1.65;;;8.80;99.90;;;;;;5025789;28;20053;-83
2023/04/04 09:16:23;;;;;;;3.80;1.58;;;8.80;99.90;;;;;;5033524;28;20401;-83
2023/04/04 09:18:49;;;;;;;6.88;1.90;;;9.00;99.90;;;;;;5033469;28;20053;-83
2023/04/04 09:21:14;;;;;;;5.75;1.92;;;8.80;99.90;;;;;;5034833;28;20041;-83
2023/04/04 09:23:42;;;;;;;4.75;1.70;;;8.70;99.90;;;;;;5031580;28;20060;-83
2023/04/04 09:26:08;;;;;;;4.32;1.70;;;8.70;99.90;;;;;;5027223;28;20099;-83
2023/04/04 09:28:34;;;;;;;4.40;1.40;;;8.80;99.90;;;;;;5034526;28;20045;-83
2023/04/04 09:31:04;;;;;;;4.43;1.40;;;8.90;99.90;;;;;;5025580;28;20053;-82
2023/04/04 09:33:31;;;;;;;6.55;2.05;;;8.90;99.90;;;;;;5034378;28;20041;-82
2023/04/04 09:36:01;;;;;;;4.82;1.83;;;9.20;99.90;;;;;;5025318;28;20152;-82
2023/04/04 09:38:29;;;;;;;5.18;1.73;;;9.40;99.90;;;;;;5033102;28;20053;-82
2023/04/04 09:40:58;;;;;;;5.40;1.83;;;9.60;99.90;;;;;;5033390;28;20045;-82
2023/04/04 09:43:24;;;;;;;5.65;1.95;;;9.50;99.90;;;;;;5034205;28;20049;-82
2023/04/04 09:45:50;;;;;;;5.88;1.90;;;9.80;99.90;;;;;;5032374;28;20477;-82
2023/04/04 09:48:33;;;;;;;4.13;1.60;;;10.00;99.90;;;;;;5027461;28;20047;-82
2023/04/04 09:51:02;;;;;;;3.95;1.65;;;9.80;99.90;;;;;;5032733;28;20128;-82
2023/04/04 09:53:28;;;;;;;6.10;1.65;;;9.40;99.90;;;;;;5032827;28;20099;-82
2023/04/04 09:55:56;;;;;;;4.25;1.52;;;9.80;99.90;;;;;;5033046;28;20042;-82
2023/04/04 09:58:26;;;;;;;4.53;1.80;;;9.80;99.90;;;;;;5028352;28;20049;-82
2023/04/04 10:00:55;;;;;;;3.80;1.63;;;9.80;99.90;;;;;;5033803;28;20041;-82
2023/04/04 10:03:25;;;;;;;3.92;1.67;;;9.90;99.90;;;;;;5027960;28;20135;-82
2023/04/04 10:06:14;;;;;;;5.43;1.90;;;10.00;99.90;;;;;;5034116;28;20041;-82
2023/04/04 10:08:40;;;;;;;4.68;1.55;;;9.90;99.90;;;;;;5017924;28;20061;-81
2023/04/04 10:11:06;;;;;;;6.03;1.58;;;9.90;99.90;;;;;;5033688;28;20067;-82
2023/04/04 10:13:40;;;;;;;4.95;1.67;;;9.70;99.90;;;;;;5029316;28;20091;-82
2023/04/04 10:16:07;;;;;;;4.90;1.58;;;10.10;99.90;;;;;;5025704;28;20045;-82
2023/04/04 10:18:34;;;;;;;3.97;1.80;;;10.30;99.90;;;;;;5033747;28;20049;-81
2023/04/04 10:21:01;;;;;;;5.03;1.65;;;10.40;99.90;;;;;;5024775;28;20124;-81
2023/04/04 10:23:27;;;;;;;3.85;1.58;;;10.40;99.90;;;;;;5032732;28;20481;-81
2023/04/04 10:25:54;;;;;;;6.43;1.73;;;9.90;99.30;;;;;;5032173;28;20099;-81
2023/04/04 10:28:21;;;;;;;4.00;2.28;;;10.10;99.90;;;;;;5027719;28;20049;-81
2023/04/04 10:30:54;;;;;;;5.93;2.50;;;10.20;99.90;;;;;;5033663;28;20504;-81
2023/04/04 10:33:46;;;;;;;4.50;1.98;;;10.10;99.90;;;;;;5033766;28;20045;-82
2023/04/04 10:36:15;;;;;;;6.07;1.90;;;10.00;99.90;;;;;;5026036;28;20041;-82
2023/04/04 10:38:54;;;;;;;6.63;1.80;;;10.40;99.90;;;;;;5031899;28;20085;-81
2023/04/04 10:41:26;;;;;;;5.78;2.00;;;10.60;99.90;;;;;;5027808;28;20087;-82
2023/04/04 10:43:55;;;;;;;7.53;2.42;;;10.60;99.90;;;;;;5031927;28;20501;-82
2023/04/04 10:46:29;;;;;;;4.80;1.85;;;10.50;99.90;;;;;;5027625;28;20042;-82
2023/04/04 10:48:57;;;;;;;5.95;1.80;;;10.60;99.90;;;;;;5032011;28;20049;-82
2023/04/04 10:51:23;;;;;;;5.20;2.10;;;10.40;99.90;;;;;;5027520;28;20116;-82
2023/04/04 10:53:50;;;;;;;8.13;2.50;;;10.40;99.90;;;;;;5031817;28;20048;-82
2023/04/04 10:56:16;;;;;;;5.38;2.00;;;10.50;99.90;;;;;;5026767;28;20048;-82
2023/04/04 10:58:43;;;;;;;4.72;2.22;;;10.20;99.90;;;;;;5032163;28;20042;-82
2023/04/04 11:01:09;;;;;;;5.45;1.92;;;10.10;99.90;;;;;;5025720;28;20555;-82
2023/04/04 11:04:12;;;;;;;7.13;2.00;;;10.00;99.90;;;;;;5031918;28;20080;-83
2023/04/04 11:07:29;;;;;;;5.55;1.77;;;10.10;99.90;;;;;;5033825;28;20501;-83
2023/04/04 11:09:59;;;;;;;7.57;2.30;;;10.20;99.90;;;;;;4982573;28;20149;-82
2023/04/04 11:12:30;;;;;;;5.00;1.90;;;10.10;99.90;;;;;;5036177;28;20041;-82
2023/04/04 11:15:02;;;;;;;4.95;1.80;;;10.10;99.90;;;;;;5035988;28;20049;-82
2023/04/04 11:17:42;;;;;;;3.35;1.73;;;10.40;99.90;;;;;;5036005;28;20049;-82
2023/04/04 11:20:15;;;;;;;6.40;1.85;;;10.40;99.90;;;;;;5035725;28;20049;-83
2023/04/04 11:22:44;;;;;;;6.93;2.00;;;10.50;99.90;;;;;;5036153;28;20083;-83
2023/04/04 11:25:29;;;;;;;6.72;2.15;;;10.00;99.90;;;;;;5029248;28;20052;-83
2023/04/04 11:27:57;;;;;;;5.63;2.00;;;10.10;99.90;;;;;;5035761;28;20485;-83
2023/04/04 11:30:27;;;;;;;4.55;1.90;;;10.50;99.90;;;;;;5035722;28;20045;-83
2023/04/04 11:32:58;;;;;;;5.88;2.10;;;10.20;99.90;;;;;;5035536;28;20132;-82
2023/04/04 11:35:24;;;;;;;4.88;1.95;;;10.40;99.90;;;;;;5031291;28;20052;-82
2023/04/04 11:37:49;;;;;;;8.27;2.38;;;10.20;99.90;;;;;;5035605;28;20500;-82
2023/04/04 11:40:17;;;;;;;5.10;1.83;;;10.00;99.90;;;;;;5029525;28;20080;-83
2023/04/04 11:42:43;;;;;;;6.03;1.83;;;9.70;99.90;;;;;;5035249;28;20038;-82
2023/04/04 11:45:16;;;;;;;4.07;1.90;;;9.80;99.90;;;;;;5035524;28;20045;-82
2023/04/04 11:47:46;;;;;;;;;;;9.80;99.90;;;;;;5035692;28;20068;-83
2023/04/04 11:50:14;;;;;;;5.13;2.10;;;9.70;99.90;;;;;;5035448;28;20013;-83
2023/04/04 11:52:41;;;;;;;5.80;1.50;;;9.90;99.90;;;;;;5035373;28;20041;-82
2023/04/04 11:55:28;;;;;;;7.97;1.55;;;9.70;99.90;;;;;;5035003;28;20052;-82
2023/04/04 11:57:56;;;;;;;5.72;1.70;;;10.10;99.90;;;;;;5036331;28;20069;-82
2023/04/04 12:00:35;;;;;;;3.58;1.40;;;9.90;99.70;;;;;;5034980;28;20485;-82
2023/04/04 12:03:03;;;;;;;6.18;2.03;;;9.60;99.90;;;;;;5034642;28;20072;-82
2023/04/04 12:05:29;;;;;;;5.50;1.85;;;10.10;99.90;;;;;;5034680;28;20061;-82
2023/04/04 12:07:55;;;;;;;5.15;1.48;;;10.00;99.40;;;;;;5034463;28;20091;-82
2023/04/04 12:10:21;;;;;;;5.53;1.75;;;9.80;99.90;;;;;;5034592;28;20081;-82
2023/04/04 12:12:46;;;;;;;4.78;1.70;;;10.00;99.90;;;;;;5035879;28;20124;-82
2023/04/04 12:15:13;;;;;;;5.05;1.80;;;10.00;99.90;;;;;;5033674;28;20091;-82
2023/04/04 12:17:41;;;;;;;3.67;1.50;;;9.70;98.20;;;;;;5034201;28;20033;-82
2023/04/04 12:20:09;;;;;;;3.28;1.48;;;9.70;99.90;;;;;;5034416;28;20100;-82
2023/04/04 12:22:35;;;;;;;4.25;1.67;;;9.70;99.90;;;;;;5034505;28;20112;-82
2023/04/04 12:25:01;;;;;;;6.35;1.92;;;9.90;99.90;;;;;;5034265;28;20064;-82
2023/04/04 12:27:28;;;;;;;3.85;1.40;;;9.50;99.90;;;;;;5034244;28;20037;-82
2023/04/04 12:29:55;;;;;;;4.43;1.60;;;9.70;99.90;;;;;;5034516;28;20087;-82
2023/04/04 12:32:22;;;;;;;7.60;1.95;;;9.90;99.90;;;;;;5034181;28;20469;-82
2023/04/04 12:34:48;;;;;;;3.72;1.45;;;10.00;99.90;;;;;;5034198;28;20061;-83
2023/04/04 12:37:15;;;;;;;3.90;1.60;;;9.60;99.90;;;;;;5034283;28;20539;-82
2023/04/04 12:39:49;;;;;;;5.68;1.90;;;9.90;99.90;;;;;;5033940;28;20072;-82
2023/04/04 12:42:23;;;;;;;5.80;2.35;;;9.40;98.20;;;;;;5035479;28;20053;-82
2023/04/04 12:44:53;;;;;;;4.28;1.95;;;9.30;98.40;;;;;;5033017;28;20114;-82
2023/04/04 12:47:24;;;;;;;4.43;1.60;;;9.00;99.20;;;;;;5028738;28;20083;-82
2023/04/04 12:49:53;;;;;;;5.45;2.08;;;9.30;99.90;;;;;;5033996;28;20505;-82
2023/04/04 12:52:29;;;;;;;5.57;2.65;;;9.30;99.90;;;;;;5028784;28;20041;-83
2023/04/04 12:54:58;;;;;;;5.18;1.73;;;9.00;99.90;;;;;;5033976;28;20073;-82
2023/04/04 12:57:25;;;;;;;4.63;1.95;;;9.40;99.90;;;;;;5029781;28;20041;-82